Time;durP1;ratioP1;P1;durP2;ratioP2;P2;SDS_P1;SDS_P2;PMS_P1;PMS_P2;Temp;Humidity;BMP_temperature;BMP_pressure;BME280_temperature;BME280_humidity;BME280_pressure;Samples;Min_cycle;Max_cycle;Signal;HPM_P1;HPM_P2
2022/11/26 00:00:09;;;;;;;63.42;38.15;;;;;;;;;;5093892;28;20442;-70
2022/11/26 00:02:34;;;;;;;70.35;41.03;;;;;;;;;;5094324;28;20478;-70
2022/11/26 00:04:59;;;;;;;69.15;40.10;;;;;;;;;;5093915;28;20031;-70
2022/11/26 00:07:27;;;;;;;58.88;36.28;;;;;;;;;;5075581;28;20041;-70
2022/11/26 00:09:53;;;;;;;56.67;34.90;;;;;;;;;;5094206;28;20466;-69
2022/11/26 00:12:18;;;;;;;55.85;33.67;;;;;;;;;;5093848;28;20379;-70
2022/11/26 00:14:43;;;;;;;57.47;35.00;;;;;;;;;;5093899;28;20020;-69
2022/11/26 00:17:12;;;;;;;55.22;35.40;;;;;;;;;;5093809;28;20743;-70
2022/11/26 00:19:38;;;;;;;56.92;35.35;;;;;;;;;;5093858;28;20058;-70
2022/11/26 00:22:04;;;;;;;57.95;36.28;;;;;;;;;;5093476;28;20058;-70
2022/11/26 00:24:30;;;;;;;57.47;35.10;;;;;;;;;;5093821;28;20024;-70
2022/11/26 00:26:56;;;;;;;57.60;35.85;;;;;;;;;;5058932;28;20024;-69
2022/11/26 00:29:22;;;;;;;56.97;33.90;;;;;;;;;;5075066;28;20412;-69
2022/11/26 00:31:47;;;;;;;60.55;33.20;;;;;;;;;;5093752;28;20035;-69
2022/11/26 00:34:12;;;;;;;54.08;32.47;;;;;;;;;;5075587;28;20073;-70
2022/11/26 00:36:38;;;;;;;55.13;33.05;;;;;;;;;;5093747;28;20048;-69
2022/11/26 00:39:06;;;;;;;59.25;32.90;;;;;;;;;;5093716;28;20016;-69
2022/11/26 00:41:32;;;;;;;53.55;33.17;;;;;;;;;;5093943;28;20020;-71
2022/11/26 00:43:58;;;;;;;56.05;33.85;;;;;;;;;;5093671;28;20047;-70
2022/11/26 00:46:23;;;;;;;55.15;32.30;;;;;;;;;;5075608;28;20466;-70
2022/11/26 00:48:49;;;;;;;53.85;31.13;;;;;;;;;;5093312;28;20452;-69
2022/11/26 00:51:17;;;;;;;49.00;30.15;;;;;;;;;;5093381;28;20028;-70
2022/11/26 00:53:43;;;;;;;50.97;31.55;;;;;;;;;;5075106;28;20020;-68
2022/11/26 00:56:13;;;;;;;53.10;31.08;;;;;;;;;;5093584;28;20493;-69
2022/11/26 00:58:38;;;;;;;44.90;29.23;;;;;;;;;;5097110;28;20024;-70
2022/11/26 01:01:03;;;;;;;54.10;32.97;;;;;;;;;;5096985;28;20114;-69
2022/11/26 01:03:29;;;;;;;53.28;32.45;;;;;;;;;;5097512;28;20366;-69
2022/11/26 01:05:57;;;;;;;51.47;31.20;;;;;;;;;;5096628;28;20028;-69
2022/11/26 01:08:28;;;;;;;54.00;34.38;;;;;;;;;;5096976;28;20063;-70
2022/11/26 01:10:53;;;;;;;51.58;32.78;;;;;;;;;;5097256;28;20465;-74
2022/11/26 01:13:19;;;;;;;51.10;32.17;;;;;;;;;;5096922;28;20091;-69
2022/11/26 01:15:44;;;;;;;54.92;33.50;;;;;;;;;;5096928;28;20362;-69
2022/11/26 01:18:17;;;;;;;59.78;34.38;;;;;;;;;;5078702;28;20365;-69
2022/11/26 01:20:43;;;;;;;55.65;33.17;;;;;;;;;;5061924;28;20112;-70
2022/11/26 01:23:09;;;;;;;53.65;34.28;;;;;;;;;;5078358;28;20058;-69
2022/11/26 01:25:35;;;;;;;57.17;34.67;;;;;;;;;;5096682;28;20035;-70
2022/11/26 01:28:00;;;;;;;52.55;33.25;;;;;;;;;;5078607;28;20012;-68
2022/11/26 01:30:28;;;;;;;54.40;35.05;;;;;;;;;;5096557;28;20449;-70
2022/11/26 01:32:53;;;;;;;60.97;34.08;;;;;;;;;;5096875;28;20095;-69
2022/11/26 01:35:20;;;;;;;76.43;43.72;;;;;;;;;;5096669;28;20572;-69
2022/11/26 01:37:46;;;;;;;66.20;37.85;;;;;;;;;;5061598;28;20027;-69
2022/11/26 01:40:24;;;;;;;55.63;34.88;;;;;;;;;;5096486;28;20086;-69
2022/11/26 01:42:52;;;;;;;57.90;33.70;;;;;;;;;;5096451;28;20031;-69
2022/11/26 01:45:18;;;;;;;55.28;33.92;;;;;;;;;;5061225;28;20029;-69
2022/11/26 01:47:47;;;;;;;59.35;34.22;;;;;;;;;;5061416;28;20127;-69
2022/11/26 01:50:30;;;;;;;64.32;37.53;;;;;;;;;;5096215;28;20019;-69
2022/11/26 01:53:10;;;;;;;59.60;34.88;;;;;;;;;;5078059;28;20036;-69
2022/11/26 01:55:38;;;;;;;66.83;37.50;;;;;;;;;;5096246;28;20035;-69
2022/11/26 01:58:06;;;;;;;72.72;38.97;;;;;;;;;;5096053;28;20073;-69
2022/11/26 02:00:31;;;;;;;69.60;38.38;;;;;;;;;;5096232;28;20024;-69
2022/11/26 02:02:57;;;;;;;67.13;38.35;;;;;;;;;;5096289;28;20467;-69
2022/11/26 02:05:27;;;;;;;70.30;38.40;;;;;;;;;;5096217;28;20023;-69
2022/11/26 02:07:52;;;;;;;;;;;;;;;;;;5095542;28;20032;-69
2022/11/26 02:10:18;;;;;;;64.13;36.97;;;;;;;;;;5095705;28;20418;-69
2022/11/26 02:12:43;;;;;;;69.22;39.30;;;;;;;;;;5096090;28;20063;-70
2022/11/26 02:15:09;;;;;;;64.82;38.53;;;;;;;;;;5077518;28;20024;-70
2022/11/26 02:17:40;;;;;;;63.50;38.15;;;;;;;;;;5095959;28;20024;-70
2022/11/26 02:20:09;;;;;;;59.20;35.42;;;;;;;;;;5095613;28;20072;-69
2022/11/26 02:22:43;;;;;;;60.05;36.65;;;;;;;;;;5095397;28;20045;-69
2022/11/26 02:25:16;;;;;;;61.35;36.78;;;;;;;;;;5095665;28;20024;-70
2022/11/26 02:27:47;;;;;;;62.47;36.55;;;;;;;;;;5095193;28;20047;-69
2022/11/26 02:30:14;;;;;;;58.08;33.88;;;;;;;;;;5095582;28;20020;-70
2022/11/26 02:33:01;;;;;;;56.95;34.03;;;;;;;;;;5095711;28;20354;-69
2022/11/26 02:35:31;;;;;;;53.08;33.63;;;;;;;;;;5077311;28;20032;-70
2022/11/26 02:38:00;;;;;;;55.50;33.67;;;;;;;;;;5095417;28;20085;-69
2022/11/26 02:40:25;;;;;;;51.95;32.70;;;;;;;;;;5095505;28;20028;-70
2022/11/26 02:42:50;;;;;;;50.80;32.75;;;;;;;;;;5095213;28;20095;-71
2022/11/26 02:45:27;;;;;;;49.13;32.70;;;;;;;;;;5095211;28;20442;-71
2022/11/26 02:47:54;;;;;;;54.40;33.15;;;;;;;;;;5076923;28;20031;-69
2022/11/26 02:50:28;;;;;;;50.78;32.50;;;;;;;;;;5095218;28;20012;-75
2022/11/26 02:52:55;;;;;;;50.05;33.83;;;;;;;;;;5094797;28;20024;-69
2022/11/26 02:55:22;;;;;;;54.10;34.80;;;;;;;;;;5095137;28;20450;-70
2022/11/26 02:57:50;;;;;;;55.03;32.42;;;;;;;;;;5095337;28;20159;-70
2022/11/26 03:00:16;;;;;;;53.50;33.83;;;;;;;;;;5076693;28;20023;-70
2022/11/26 03:03:01;;;;;;;51.35;32.55;;;;;;;;;;5076514;28;20127;-70
2022/11/26 03:05:29;;;;;;;56.25;33.63;;;;;;;;;;5094318;28;20040;-71
2022/11/26 03:07:55;;;;;;;50.15;32.55;;;;;;;;;;5093986;28;20497;-71
2022/11/26 03:10:25;;;;;;;50.63;32.70;;;;;;;;;;5094354;28;20036;-70
2022/11/26 03:12:50;;;;;;;51.37;33.37;;;;;;;;;;5094642;28;20543;-70
2022/11/26 03:15:16;;;;;;;53.92;32.58;;;;;;;;;;5094739;28;20103;-71
2022/11/26 03:17:41;;;;;;;52.88;32.72;;;;;;;;;;5076292;28;20111;-70
2022/11/26 03:20:07;;;;;;;56.05;33.95;;;;;;;;;;5094047;28;20115;-70
2022/11/26 03:22:32;;;;;;;52.40;33.08;;;;;;;;;;5094794;28;20028;-71
2022/11/26 03:24:57;;;;;;;54.35;33.10;;;;;;;;;;5076436;28;20036;-70
2022/11/26 03:27:24;;;;;;;54.10;33.67;;;;;;;;;;5094188;28;20015;-71
2022/11/26 03:29:50;;;;;;;51.08;33.63;;;;;;;;;;5094279;28;20050;-71
2022/11/26 03:32:15;;;;;;;51.35;32.47;;;;;;;;;;5076287;28;20016;-71
2022/11/26 03:34:41;;;;;;;54.75;33.33;;;;;;;;;;5076201;28;20487;-70
2022/11/26 03:37:07;;;;;;;53.75;33.13;;;;;;;;;;5094292;28;20023;-68
2022/11/26 03:39:32;;;;;;;54.92;34.08;;;;;;;;;;5094334;28;20028;-69
2022/11/26 03:41:58;;;;;;;52.15;33.90;;;;;;;;;;5094155;28;20059;-69
2022/11/26 03:44:23;;;;;;;53.60;34.25;;;;;;;;;;5093783;28;20081;-69
2022/11/26 03:46:49;;;;;;;57.03;33.67;;;;;;;;;;5094246;28;20078;-69
2022/11/26 03:49:14;;;;;;;54.90;33.30;;;;;;;;;;5094038;28;20031;-69
2022/11/26 03:51:39;;;;;;;53.88;33.88;;;;;;;;;;5094034;28;20089;-68
2022/11/26 03:54:05;;;;;;;57.30;33.30;;;;;;;;;;5076466;28;20111;-70
2022/11/26 03:56:30;;;;;;;56.70;34.33;;;;;;;;;;5076211;28;20111;-70
2022/11/26 03:58:56;;;;;;;53.58;32.80;;;;;;;;;;5094276;28;20024;-70
2022/11/26 04:01:21;;;;;;;57.47;34.65;;;;;;;;;;5076248;28;20380;-69
2022/11/26 04:03:47;;;;;;;44.03;27.73;;;;;;;;;;5094475;28;20465;-70
2022/11/26 04:06:12;;;;;;;55.97;33.65;;;;;;;;;;5094038;28;20040;-71
2022/11/26 04:08:37;;;;;;;54.35;33.33;;;;;;;;;;5093693;28;20401;-69
2022/11/26 04:11:03;;;;;;;54.33;32.50;;;;;;;;;;5059239;28;20070;-70
2022/11/26 04:13:28;;;;;;;48.75;30.38;;;;;;;;;;5075921;28;20123;-70
2022/11/26 04:15:54;;;;;;;45.13;29.15;;;;;;;;;;5093917;28;20028;-70
2022/11/26 04:18:19;;;;;;;47.85;29.48;;;;;;;;;;5093982;28;20028;-69
2022/11/26 04:20:44;;;;;;;48.55;29.02;;;;;;;;;;5075866;28;20484;-70
2022/11/26 04:23:10;;;;;;;46.20;28.25;;;;;;;;;;5093764;28;20077;-68
2022/11/26 04:25:35;;;;;;;48.55;29.67;;;;;;;;;;5093953;28;20458;-69
2022/11/26 04:28:01;;;;;;;46.20;29.52;;;;;;;;;;5075808;28;20103;-69
2022/11/26 04:30:26;;;;;;;50.03;30.65;;;;;;;;;;5094138;28;20499;-69
2022/11/26 04:32:52;;;;;;;51.03;30.98;;;;;;;;;;5096849;28;20024;-72
2022/11/26 04:35:17;;;;;;;51.17;31.08;;;;;;;;;;5097839;28;20515;-74
2022/11/26 04:37:42;;;;;;;51.80;30.88;;;;;;;;;;5079705;28;20028;-74
2022/11/26 04:40:08;;;;;;;50.42;31.10;;;;;;;;;;5079518;28;20020;-75
2022/11/26 04:42:33;;;;;;;52.63;32.00;;;;;;;;;;5097190;28;20496;-70
2022/11/26 04:44:59;;;;;;;55.15;32.90;;;;;;;;;;5097183;28;20043;-69
2022/11/26 04:47:24;;;;;;;54.78;33.83;;;;;;;;;;5097477;28;20040;-69
2022/11/26 04:49:50;;;;;;;51.78;32.45;;;;;;;;;;5097369;28;20020;-69
2022/11/26 04:52:15;;;;;;;51.88;33.17;;;;;;;;;;5097096;28;20028;-70
2022/11/26 04:54:40;;;;;;;54.75;32.90;;;;;;;;;;5078977;28;20523;-70
2022/11/26 04:57:06;;;;;;;55.70;33.88;;;;;;;;;;5097368;28;20116;-70
2022/11/26 04:59:31;;;;;;;55.05;33.83;;;;;;;;;;5097194;28;20030;-68
2022/11/26 05:01:58;;;;;;;49.67;31.45;;;;;;;;;;5078906;28;20098;-75
2022/11/26 05:04:25;;;;;;;51.17;32.53;;;;;;;;;;5097200;28;20020;-75
2022/11/26 05:06:51;;;;;;;45.42;30.05;;;;;;;;;;5078761;28;20137;-75
2022/11/26 05:09:16;;;;;;;47.78;31.10;;;;;;;;;;5097221;28;20032;-74
2022/11/26 05:11:42;;;;;;;49.25;29.98;;;;;;;;;;5097099;28;20036;-74
2022/11/26 05:14:07;;;;;;;46.28;28.38;;;;;;;;;;5078614;28;20170;-74
2022/11/26 05:16:33;;;;;;;48.20;29.55;;;;;;;;;;5078632;28;20020;-76
2022/11/26 05:18:58;;;;;;;45.03;29.27;;;;;;;;;;5097143;28;20358;-77
2022/11/26 05:21:23;;;;;;;42.17;27.38;;;;;;;;;;5096630;28;20469;-75
2022/11/26 05:23:49;;;;;;;45.47;28.95;;;;;;;;;;5096960;28;20051;-78
2022/11/26 05:26:14;;;;;;;48.90;30.10;;;;;;;;;;5079128;28;20523;-75
2022/11/26 05:28:40;;;;;;;44.25;28.35;;;;;;;;;;5096042;28;20063;-75
2022/11/26 05:31:05;;;;;;;39.20;26.52;;;;;;;;;;5096444;28;20041;-76
2022/11/26 05:33:31;;;;;;;40.88;27.02;;;;;;;;;;5078117;28;20024;-75
2022/11/26 05:35:56;;;;;;;37.53;25.27;;;;;;;;;;5078310;28;20028;-75
2022/11/26 05:38:22;;;;;;;37.58;24.45;;;;;;;;;;5096432;28;20027;-76
2022/11/26 05:40:48;;;;;;;37.25;24.23;;;;;;;;;;5078189;28;20196;-75
2022/11/26 05:43:13;;;;;;;39.15;25.25;;;;;;;;;;5077648;28;20115;-75
2022/11/26 05:45:39;;;;;;;34.88;24.02;;;;;;;;;;5095646;28;20042;-74
2022/11/26 05:48:04;;;;;;;39.38;25.90;;;;;;;;;;5091655;28;20024;-75
2022/11/26 05:50:36;;;;;;;39.65;25.88;;;;;;;;;;5083140;28;20050;-75
2022/11/26 05:53:01;;;;;;;41.75;26.00;;;;;;;;;;5084056;28;20047;-75
2022/11/26 05:55:27;;;;;;;37.15;24.85;;;;;;;;;;5084826;28;20048;-70
2022/11/26 05:57:52;;;;;;;41.47;26.67;;;;;;;;;;5082648;28;20078;-70
2022/11/26 06:00:18;;;;;;;43.33;26.58;;;;;;;;;;5089264;28;20024;-76
2022/11/26 06:02:43;;;;;;;38.72;25.17;;;;;;;;;;5095439;28;20024;-75
2022/11/26 06:05:08;;;;;;;41.92;26.42;;;;;;;;;;5095790;28;20043;-75
2022/11/26 06:07:34;;;;;;;38.42;25.98;;;;;;;;;;5095445;28;20470;-76
2022/11/26 06:10:00;;;;;;;38.58;25.65;;;;;;;;;;5095384;28;20469;-76
2022/11/26 06:12:26;;;;;;;40.85;26.33;;;;;;;;;;5095125;28;20032;-76
2022/11/26 06:14:51;;;;;;;37.75;25.08;;;;;;;;;;5095450;28;20028;-76
2022/11/26 06:17:16;;;;;;;35.05;22.63;;;;;;;;;;5095197;28;20107;-76
2022/11/26 06:19:41;;;;;;;36.50;24.02;;;;;;;;;;5076162;28;20069;-76
2022/11/26 06:22:07;;;;;;;38.53;24.55;;;;;;;;;;5094046;28;20474;-76
2022/11/26 06:24:33;;;;;;;36.40;22.35;;;;;;;;;;5076048;28;20035;-74
2022/11/26 06:27:02;;;;;;;34.60;22.85;;;;;;;;;;5075785;28;20043;-74
2022/11/26 06:29:27;;;;;;;35.53;23.50;;;;;;;;;;5094163;28;20157;-74
2022/11/26 06:31:53;;;;;;;33.85;22.65;;;;;;;;;;5093981;28;20514;-73
2022/11/26 06:34:18;;;;;;;33.42;22.20;;;;;;;;;;5075841;28;20555;-74
2022/11/26 06:36:44;;;;;;;32.20;21.75;;;;;;;;;;5075650;28;20016;-75
2022/11/26 06:39:09;;;;;;;31.40;21.70;;;;;;;;;;5093449;28;20019;-74
2022/11/26 06:41:35;;;;;;;30.45;19.77;;;;;;;;;;5093845;28;20378;-74
2022/11/26 06:44:00;;;;;;;35.85;24.77;;;;;;;;;;5093964;28;20024;-73
2022/11/26 06:46:26;;;;;;;37.88;24.27;;;;;;;;;;5093755;28;20675;-74
2022/11/26 06:48:51;;;;;;;42.92;29.33;;;;;;;;;;5093618;28;20103;-74
2022/11/26 06:51:26;;;;;;;43.28;28.98;;;;;;;;;;5075118;28;20097;-74
2022/11/26 06:53:52;;;;;;;37.10;25.65;;;;;;;;;;5092838;28;20416;-74
2022/11/26 06:56:17;;;;;;;41.30;26.20;;;;;;;;;;5075839;28;20023;-76
2022/11/26 06:58:43;;;;;;;39.47;26.08;;;;;;;;;;5093960;28;20073;-73
2022/11/26 07:01:09;;;;;;;34.08;23.73;;;;;;;;;;5076060;28;20031;-75
2022/11/26 07:03:34;;;;;;;34.45;22.60;;;;;;;;;;5075310;28;20390;-75
2022/11/26 07:06:00;;;;;;;32.55;22.80;;;;;;;;;;5090679;28;20020;-74
2022/11/26 07:08:25;;;;;;;33.75;23.20;;;;;;;;;;5054280;28;20028;-70
2022/11/26 07:10:50;;;;;;;33.63;22.27;;;;;;;;;;5072379;28;20139;-70
2022/11/26 07:13:16;;;;;;;30.92;21.58;;;;;;;;;;5072537;28;20071;-71
2022/11/26 07:15:41;;;;;;;29.67;20.13;;;;;;;;;;5054672;28;20016;-70
2022/11/26 07:18:07;;;;;;;31.70;20.27;;;;;;;;;;5072430;28;20366;-71
2022/11/26 07:20:33;;;;;;;32.03;21.13;;;;;;;;;;5055650;28;20016;-71
2022/11/26 07:23:01;;;;;;;34.42;22.90;;;;;;;;;;5043426;28;20387;-71
2022/11/26 07:25:27;;;;;;;34.65;22.20;;;;;;;;;;5053307;28;20028;-70
2022/11/26 07:27:52;;;;;;;32.42;21.58;;;;;;;;;;5053055;28;20118;-71
2022/11/26 07:30:18;;;;;;;36.20;23.08;;;;;;;;;;5053082;28;20048;-71
2022/11/26 07:32:43;;;;;;;35.88;22.67;;;;;;;;;;5034641;28;20025;-70
2022/11/26 07:35:14;;;;;;;38.90;25.23;;;;;;;;;;5052959;28;20028;-70
2022/11/26 07:37:40;;;;;;;69.25;38.58;;;;;;;;;;5052761;28;20025;-70
2022/11/26 07:40:05;;;;;;;34.03;23.45;;;;;;;;;;5053072;28;20474;-71
2022/11/26 07:42:31;;;;;;;34.85;22.45;;;;;;;;;;5052218;28;20071;-71
2022/11/26 07:44:57;;;;;;;30.10;20.70;;;;;;;;;;5034962;28;20021;-70
2022/11/26 07:47:22;;;;;;;34.40;23.15;;;;;;;;;;5052931;28;20451;-73
2022/11/26 07:49:48;;;;;;;44.55;27.35;;;;;;;;;;5035097;28;20025;-70
2022/11/26 07:52:13;;;;;;;38.80;26.23;;;;;;;;;;5053049;28;20017;-72
2022/11/26 07:54:38;;;;;;;40.08;24.95;;;;;;;;;;5053166;28;20119;-60
2022/11/26 07:57:04;;;;;;;35.25;23.27;;;;;;;;;;5052453;28;20108;-72
2022/11/26 07:59:29;;;;;;;33.50;23.15;;;;;;;;;;5034257;28;20607;-72
2022/11/26 08:01:54;;;;;;;33.70;21.95;;;;;;;;;;5052728;28;20033;-72
2022/11/26 08:04:20;;;;;;;34.08;22.65;;;;;;;;;;5034532;28;20103;-74
2022/11/26 08:06:45;;;;;;;35.22;23.25;;;;;;;;;;5028038;28;20390;-73
2022/11/26 08:09:11;;;;;;;36.05;23.88;;;;;;;;;;5075792;28;20036;-71
2022/11/26 08:11:36;;;;;;;35.78;23.80;;;;;;;;;;5076204;28;20024;-74
2022/11/26 08:14:05;;;;;;;29.80;21.13;;;;;;;;;;5076282;28;20103;-72
2022/11/26 08:16:31;;;;;;;30.30;20.75;;;;;;;;;;5057459;28;20530;-75
2022/11/26 08:18:59;;;;;;;31.27;21.13;;;;;;;;;;5076446;28;20103;-73
2022/11/26 08:21:25;;;;;;;32.08;21.77;;;;;;;;;;5076785;28;20028;-74
2022/11/26 08:23:51;;;;;;;30.40;20.35;;;;;;;;;;5058562;28;20374;-72
2022/11/26 08:26:17;;;;;;;28.17;20.83;;;;;;;;;;5058676;28;20033;-74
2022/11/26 08:28:42;;;;;;;25.27;18.70;;;;;;;;;;5058782;28;20466;-76
2022/11/26 08:31:10;;;;;;;32.63;22.25;;;;;;;;;;5076822;28;20119;-76
2022/11/26 08:33:35;;;;;;;32.55;22.30;;;;;;;;;;5076829;28;20048;-76
2022/11/26 08:36:02;;;;;;;31.38;21.73;;;;;;;;;;5058487;28;20559;-77
2022/11/26 08:38:29;;;;;;;34.30;23.30;;;;;;;;;;5058319;28;20017;-75
2022/11/26 08:40:58;;;;;;;36.15;23.45;;;;;;;;;;5076638;28;20028;-76
2022/11/26 08:43:23;;;;;;;34.63;23.33;;;;;;;;;;5058514;28;20036;-76
2022/11/26 08:45:53;;;;;;;35.95;24.70;;;;;;;;;;5076519;28;20025;-75
2022/11/26 08:48:18;;;;;;;37.97;24.92;;;;;;;;;;5076065;28;20634;-76
2022/11/26 08:50:43;;;;;;;38.20;25.38;;;;;;;;;;5076647;28;20032;-75
2022/11/26 08:53:09;;;;;;;39.90;26.63;;;;;;;;;;5058952;28;20025;-75
2022/11/26 08:55:34;;;;;;;39.33;25.98;;;;;;;;;;5076379;28;20036;-75
2022/11/26 08:58:00;;;;;;;41.60;26.77;;;;;;;;;;5075782;28;20032;-78
2022/11/26 09:00:26;;;;;;;41.72;26.23;;;;;;;;;;5058397;28;20032;-75
2022/11/26 09:02:51;;;;;;;43.25;28.42;;;;;;;;;;5076311;28;20359;-78
2022/11/26 09:05:16;;;;;;;39.67;25.85;;;;;;;;;;5058562;28;20127;-77
2022/11/26 09:07:42;;;;;;;38.63;25.10;;;;;;;;;;5075993;28;20037;-76
2022/11/26 09:10:07;;;;;;;37.85;24.80;;;;;;;;;;5076182;28;20028;-77
2022/11/26 09:12:33;;;;;;;45.50;25.92;;;;;;;;;;5058102;28;20024;-78
2022/11/26 09:14:58;;;;;;;39.28;24.95;;;;;;;;;;5075152;28;20033;-76
2022/11/26 09:17:23;;;;;;;41.78;25.90;;;;;;;;;;5057244;28;20039;-75
2022/11/26 09:19:49;;;;;;;45.25;27.10;;;;;;;;;;5075966;28;20055;-77
2022/11/26 09:22:14;;;;;;;40.38;26.17;;;;;;;;;;5058300;28;20390;-78
2022/11/26 09:24:40;;;;;;;39.55;26.17;;;;;;;;;;5075861;28;20028;-76
2022/11/26 09:27:05;;;;;;;45.13;26.42;;;;;;;;;;5058150;28;20111;-75
2022/11/26 09:29:30;;;;;;;39.83;25.67;;;;;;;;;;5076065;28;20433;-79
2022/11/26 09:31:56;;;;;;;45.10;26.17;;;;;;;;;;5058224;28;20058;-78
2022/11/26 09:34:22;;;;;;;42.38;26.20;;;;;;;;;;5075994;28;20020;-78
2022/11/26 09:36:47;;;;;;;42.67;27.38;;;;;;;;;;5057965;28;20466;-77
2022/11/26 09:39:13;;;;;;;45.05;29.13;;;;;;;;;;5057778;28;20509;-76
2022/11/26 09:41:51;;;;;;;49.63;28.63;;;;;;;;;;5074807;28;20048;-77
2022/11/26 09:44:36;;;;;;;45.33;28.60;;;;;;;;;;5075461;28;20024;-77
2022/11/26 09:47:11;;;;;;;45.28;28.48;;;;;;;;;;5057222;28;20485;-75
2022/11/26 09:49:40;;;;;;;41.88;28.58;;;;;;;;;;5074496;28;20528;-77
2022/11/26 09:52:07;;;;;;;47.30;28.75;;;;;;;;;;5056067;28;20363;-75
2022/11/26 09:54:37;;;;;;;46.10;28.42;;;;;;;;;;5039815;28;20020;-77
2022/11/26 09:57:27;;;;;;;44.90;29.02;;;;;;;;;;5075082;28;20032;-75
2022/11/26 09:59:54;;;;;;;42.50;27.65;;;;;;;;;;5037930;28;20040;-76
2022/11/26 10:02:19;;;;;;;43.90;28.52;;;;;;;;;;5075531;28;20074;-75
2022/11/26 10:04:46;;;;;;;43.97;28.23;;;;;;;;;;5075227;28;20016;-76
2022/11/26 10:07:13;;;;;;;49.53;31.75;;;;;;;;;;5074662;28;20423;-75
2022/11/26 10:09:39;;;;;;;48.20;29.83;;;;;;;;;;5075399;28;20028;-75
2022/11/26 10:12:06;;;;;;;39.85;25.67;;;;;;;;;;5057322;28;20516;-79
2022/11/26 10:14:51;;;;;;;49.75;32.25;;;;;;;;;;5057127;28;20059;-75
2022/11/26 10:17:34;;;;;;;46.80;29.88;;;;;;;;;;5074725;28;20494;-75
2022/11/26 10:20:15;;;;;;;46.33;30.05;;;;;;;;;;5074478;28;20471;-77
2022/11/26 10:22:55;;;;;;;44.35;28.83;;;;;;;;;;5056353;28;20079;-76
2022/11/26 10:25:22;;;;;;;46.33;30.45;;;;;;;;;;5074955;28;20029;-75
2022/11/26 10:27:50;;;;;;;47.22;29.52;;;;;;;;;;5056359;28;20012;-74
2022/11/26 10:30:20;;;;;;;48.10;30.35;;;;;;;;;;5074278;28;20043;-78
2022/11/26 10:32:48;;;;;;;43.92;28.85;;;;;;;;;;5074557;28;20017;-78
2022/11/26 10:35:14;;;;;;;46.55;29.95;;;;;;;;;;5074839;28;20020;-78
2022/11/26 10:37:39;;;;;;;43.28;28.58;;;;;;;;;;5074291;28;20031;-77
2022/11/26 10:40:18;;;;;;;46.08;29.52;;;;;;;;;;5056771;28;20012;-77
2022/11/26 10:43:11;;;;;;;34.60;23.70;;;;;;;;;;5074155;28;20025;-76
2022/11/26 10:45:36;;;;;;;41.17;27.38;;;;;;;;;;5071188;28;20047;-77
2022/11/26 10:48:16;;;;;;;37.53;23.10;;;;;;;;;;5056178;28;20025;-77
2022/11/26 10:50:42;;;;;;;52.00;32.30;;;;;;;;;;5074091;28;20028;-78
2022/11/26 10:53:17;;;;;;;49.47;31.88;;;;;;;;;;5056553;28;20023;-75
2022/11/26 10:55:43;;;;;;;51.15;32.08;;;;;;;;;;5056223;28;20073;-76
2022/11/26 10:58:30;;;;;;;48.90;32.55;;;;;;;;;;5056452;28;20408;-76
2022/11/26 11:00:58;;;;;;;48.20;30.50;;;;;;;;;;5056353;28;20064;-76
2022/11/26 11:03:29;;;;;;;45.97;30.65;;;;;;;;;;5056326;28;20447;-76
2022/11/26 11:06:10;;;;;;;45.83;31.27;;;;;;;;;;5073134;28;20028;-76
2022/11/26 11:08:35;;;;;;;;;;;;;;;;;;5074198;28;20123;-79
2022/11/26 11:11:01;;;;;;;46.03;31.03;;;;;;;;;;5073269;28;19912;-76
2022/11/26 11:13:40;;;;;;;45.03;31.10;;;;;;;;;;5055963;28;20032;-76
2022/11/26 11:16:06;;;;;;;49.65;32.80;;;;;;;;;;5073927;28;20017;-76
2022/11/26 11:18:34;;;;;;;50.67;32.80;;;;;;;;;;5073806;28;20351;-76
2022/11/26 11:21:02;;;;;;;54.25;34.00;;;;;;;;;;5073764;28;20033;-75
2022/11/26 11:23:33;;;;;;;54.65;34.20;;;;;;;;;;5056053;28;20025;-77
2022/11/26 11:26:07;;;;;;;52.42;33.25;;;;;;;;;;5073510;28;20040;-77
2022/11/26 11:28:35;;;;;;;50.50;31.70;;;;;;;;;;5073709;28;20363;-77
2022/11/26 11:31:18;;;;;;;54.65;35.67;;;;;;;;;;5073624;28;20431;-75
2022/11/26 11:33:43;;;;;;;58.30;35.13;;;;;;;;;;5073539;28;20035;-77
2022/11/26 11:36:12;;;;;;;55.22;35.05;;;;;;;;;;5073286;28;20020;-76
2022/11/26 11:38:48;;;;;;;52.50;31.98;;;;;;;;;;5073731;28;20025;-75
2022/11/26 11:41:27;;;;;;;38.17;24.80;;;;;;;;;;5038639;28;20032;-79
2022/11/26 11:44:00;;;;;;;55.70;34.55;;;;;;;;;;5073470;28;20040;-73
2022/11/26 11:46:34;;;;;;;53.15;31.63;;;;;;;;;;5073351;28;20040;-74
2022/11/26 11:49:03;;;;;;;52.60;32.45;;;;;;;;;;5073003;28;20032;-73
2022/11/26 11:51:34;;;;;;;56.85;34.33;;;;;;;;;;5055557;28;20466;-73
2022/11/26 11:54:11;;;;;;;56.75;33.83;;;;;;;;;;5073628;28;20078;-75
2022/11/26 11:56:42;;;;;;;57.13;35.45;;;;;;;;;;5073498;28;20025;-75
2022/11/26 11:59:08;;;;;;;61.17;35.75;;;;;;;;;;5073042;28;20033;-74
2022/11/26 12:01:39;;;;;;;52.17;31.98;;;;;;;;;;5055126;28;20021;-75
2022/11/26 12:04:17;;;;;;;55.33;33.92;;;;;;;;;;5055184;28;20467;-73
2022/11/26 12:06:53;;;;;;;61.75;35.63;;;;;;;;;;5073238;28;20068;-74
2022/11/26 12:09:32;;;;;;;58.55;35.20;;;;;;;;;;5073325;28;20051;-74
2022/11/26 12:12:00;;;;;;;60.05;35.40;;;;;;;;;;5072990;28;20060;-73
2022/11/26 12:14:31;;;;;;;48.20;28.60;;;;;;;;;;5073410;28;20017;-74
2022/11/26 12:17:10;;;;;;;52.17;31.30;;;;;;;;;;5073399;28;20036;-73
2022/11/26 12:19:56;;;;;;;61.22;36.78;;;;;;;;;;5072366;28;20075;-74
2022/11/26 12:22:30;;;;;;;57.70;34.92;;;;;;;;;;5072188;28;20143;-73
2022/11/26 12:25:21;;;;;;;55.33;32.33;;;;;;;;;;5071945;28;20379;-74
2022/11/26 12:27:51;;;;;;;55.20;32.63;;;;;;;;;;5050601;28;20052;-72
2022/11/26 12:30:19;;;;;;;58.88;33.85;;;;;;;;;;5072264;28;20055;-73
2022/11/26 12:32:51;;;;;;;62.13;37.05;;;;;;;;;;5072060;28;20056;-74
2022/11/26 12:35:26;;;;;;;61.97;37.80;;;;;;;;;;5054754;28;20035;-75
2022/11/26 12:37:56;;;;;;;55.95;34.92;;;;;;;;;;5072390;28;20103;-75
2022/11/26 12:40:39;;;;;;;55.00;34.08;;;;;;;;;;5070950;28;20158;-72
2022/11/26 12:43:12;;;;;;;48.47;31.05;;;;;;;;;;5052365;28;20068;-73
2022/11/26 12:45:43;;;;;;;56.47;33.88;;;;;;;;;;5070853;28;20017;-74
2022/11/26 12:48:27;;;;;;;58.47;33.92;;;;;;;;;;5052815;28;20044;-73
2022/11/26 12:51:11;;;;;;;56.78;33.35;;;;;;;;;;5070776;28;20020;-73
2022/11/26 12:53:43;;;;;;;55.17;33.15;;;;;;;;;;5073483;28;20033;-73
2022/11/26 12:56:29;;;;;;;53.28;32.00;;;;;;;;;;5057970;28;20467;-74
2022/11/26 12:58:55;;;;;;;53.42;32.33;;;;;;;;;;5075299;28;20036;-72
2022/11/26 13:01:22;;;;;;;52.47;32.90;;;;;;;;;;5057709;28;20031;-72
2022/11/26 13:03:48;;;;;;;52.20;32.20;;;;;;;;;;5075496;28;20266;-72
2022/11/26 13:06:20;;;;;;;52.30;31.65;;;;;;;;;;5075689;28;20048;-74
2022/11/26 13:08:45;;;;;;;48.85;30.08;;;;;;;;;;5057339;28;20037;-72
2022/11/26 13:11:17;;;;;;;43.33;27.15;;;;;;;;;;5075747;28;20037;-73
2022/11/26 13:13:45;;;;;;;45.53;28.08;;;;;;;;;;5075668;28;20063;-73
2022/11/26 13:16:20;;;;;;;38.53;26.65;;;;;;;;;;5056768;28;20462;-73
2022/11/26 13:18:47;;;;;;;37.65;25.48;;;;;;;;;;5057492;28;20063;-78
2022/11/26 13:21:22;;;;;;;32.15;18.60;;;;;;;;;;5076154;28;20435;-77
2022/11/26 13:23:48;;;;;;;34.60;23.13;;;;;;;;;;5057964;28;20398;-78
2022/11/26 13:26:33;;;;;;;35.55;23.27;;;;;;;;;;5041123;28;20020;-76
2022/11/26 13:29:19;;;;;;;37.65;23.88;;;;;;;;;;5057917;28;20028;-75
2022/11/26 13:31:46;;;;;;;34.63;22.67;;;;;;;;;;5076014;28;20521;-76
2022/11/26 13:34:17;;;;;;;35.15;21.92;;;;;;;;;;5058112;28;20111;-76
2022/11/26 13:36:50;;;;;;;31.77;20.98;;;;;;;;;;5075897;28;20032;-77
2022/11/26 13:39:18;;;;;;;28.92;19.15;;;;;;;;;;5075181;28;20032;-76
2022/11/26 13:41:52;;;;;;;27.92;18.90;;;;;;;;;;5075568;28;20107;-75
2022/11/26 13:44:28;;;;;;;23.65;16.23;;;;;;;;;;5075387;28;20036;-76
2022/11/26 13:47:04;;;;;;;24.08;15.25;;;;;;;;;;5073801;28;20082;-77
2022/11/26 13:49:38;;;;;;;21.13;15.00;;;;;;;;;;5075071;28;20478;-78
2022/11/26 13:52:10;;;;;;;21.90;15.10;;;;;;;;;;5075509;28;20028;-75
2022/11/26 13:54:36;;;;;;;18.42;14.15;;;;;;;;;;5074974;28;20451;-76
2022/11/26 13:57:10;;;;;;;22.08;15.20;;;;;;;;;;5075461;28;20016;-78
2022/11/26 13:59:43;;;;;;;23.33;14.80;;;;;;;;;;5075568;28;20043;-75
2022/11/26 14:02:28;;;;;;;23.35;15.15;;;;;;;;;;5075315;28;20040;-77
2022/11/26 14:04:54;;;;;;;21.63;14.23;;;;;;;;;;5056976;28;20024;-75
2022/11/26 14:07:19;;;;;;;20.13;14.95;;;;;;;;;;5075220;28;20041;-76
2022/11/26 14:09:49;;;;;;;22.55;14.88;;;;;;;;;;5074815;28;20029;-77
2022/11/26 14:12:16;;;;;;;21.98;15.40;;;;;;;;;;5073553;28;20440;-72
2022/11/26 14:14:42;;;;;;;21.50;14.43;;;;;;;;;;5073585;28;20027;-72
2022/11/26 14:17:07;;;;;;;21.05;15.43;;;;;;;;;;5073399;28;20025;-73
2022/11/26 14:19:39;;;;;;;24.30;14.88;;;;;;;;;;5072395;28;20104;-72
2022/11/26 14:22:24;;;;;;;23.40;15.18;;;;;;;;;;5073433;28;20524;-73
2022/11/26 14:24:49;;;;;;;20.67;14.15;;;;;;;;;;5074224;28;20029;-74